sensor_id;sensor_type;location;lat;lon;timestamp;pressure;altitude;pressure_sealevel;temperature;humidity
24280;BME280;12395;42.808;23.408;2023-02-18T00:02:06;95631.88;;;1.78;81.22
24280;BME280;12395;42.808;23.408;2023-02-18T00:04:31;95638.50;;;1.72;81.07
24280;BME280;12395;42.808;23.408;2023-02-18T00:06:57;95626.81;;;1.76;80.36
24280;BME280;12395;42.808;23.408;2023-02-18T00:09:23;95614.97;;;1.63;80.64
24280;BME280;12395;42.808;23.408;2023-02-18T00:11:48;95616.75;;;1.72;81.24
24280;BME280;12395;42.808;23.408;2023-02-18T00:14:15;95632.31;;;1.73;80.83
24280;BME280;12395;42.808;23.408;2023-02-18T00:16:42;95621.72;;;1.75;81.21
24280;BME280;12395;42.808;23.408;2023-02-18T00:19:11;95600.56;;;1.68;81.04
24280;BME280;12395;42.808;23.408;2023-02-18T00:21:37;95602.75;;;1.53;79.02
24280;BME280;12395;42.808;23.408;2023-02-18T00:24:04;95607.78;;;1.45;79.21
24280;BME280;12395;42.808;23.408;2023-02-18T00:26:30;95601.44;;;1.19;79.73
24280;BME280;12395;42.808;23.408;2023-02-18T00:28:55;95593.97;;;1.05;80.15
24280;BME280;12395;42.808;23.408;2023-02-18T00:31:22;95596.19;;;1.10;81.59
24280;BME280;12395;42.808;23.408;2023-02-18T00:33:48;95579.97;;;1.06;81.25
24280;BME280;12395;42.808;23.408;2023-02-18T00:36:16;95584.34;;;0.96;81.59
24280;BME280;12395;42.808;23.408;2023-02-18T00:38:50;95597.78;;;1.01;81.65
24280;BME280;12395;42.808;23.408;2023-02-18T00:41:16;95593.97;;;1.05;82.22
24280;BME280;12395;42.808;23.408;2023-02-18T00:43:41;95592.03;;;0.98;81.21
24280;BME280;12395;42.808;23.408;2023-02-18T00:46:07;95588.59;;;0.97;81.48
24280;BME280;12395;42.808;23.408;2023-02-18T00:48:33;95584.59;;;0.93;81.32
24280;BME280;12395;42.808;23.408;2023-02-18T00:50:59;95606.72;;;0.99;82.56
24280;BME280;12395;42.808;23.408;2023-02-18T00:53:26;95580.94;;;0.75;82.67
24280;BME280;12395;42.808;23.408;2023-02-18T00:55:51;95582.88;;;0.73;82.83
24280;BME280;12395;42.808;23.408;2023-02-18T00:58:17;95589.75;;;0.84;82.02
24280;BME280;12395;42.808;23.408;2023-02-18T01:00:43;95593.34;;;0.83;82.57
24280;BME280;12395;42.808;23.408;2023-02-18T01:03:08;95580.94;;;0.65;82.79
24280;BME280;12395;42.808;23.408;2023-02-18T01:05:35;95564.00;;;0.60;83.72
24280;BME280;12395;42.808;23.408;2023-02-18T01:08:00;95578.88;;;0.69;84.39
24280;BME280;12395;42.808;23.408;2023-02-18T01:10:26;95573.41;;;0.72;84.42
24280;BME280;12395;42.808;23.408;2023-02-18T01:12:51;95564.19;;;0.68;84.72
24280;BME280;12395;42.808;23.408;2023-02-18T01:15:17;95578.84;;;0.59;84.65
24280;BME280;12395;42.808;23.408;2023-02-18T01:17:43;95564.44;;;0.65;84.84
24280;BME280;12395;42.808;23.408;2023-02-18T01:20:09;95561.91;;;0.54;85.31
24280;BME280;12395;42.808;23.408;2023-02-18T01:22:35;95558.41;;;0.64;85.19
24280;BME280;12395;42.808;23.408;2023-02-18T01:25:01;95557.47;;;0.75;84.53
24280;BME280;12395;42.808;23.408;2023-02-18T01:27:27;95548.56;;;0.68;84.17
24280;BME280;12395;42.808;23.408;2023-02-18T01:29:53;95547.94;;;0.55;84.27
24280;BME280;12395;42.808;23.408;2023-02-18T01:32:19;95560.84;;;0.56;84.43
24280;BME280;12395;42.808;23.408;2023-02-18T01:34:44;95562.72;;;0.45;85.13
24280;BME280;12395;42.808;23.408;2023-02-18T01:37:10;95560.91;;;0.45;84.98
24280;BME280;12395;42.808;23.408;2023-02-18T01:39:35;95556.63;;;0.35;85.28
24280;BME280;12395;42.808;23.408;2023-02-18T01:42:01;95576.06;;;0.31;85.42
24280;BME280;12395;42.808;23.408;2023-02-18T01:44:27;95572.25;;;0.35;85.70
24280;BME280;12395;42.808;23.408;2023-02-18T01:46:53;95558.22;;;0.26;86.98
24280;BME280;12395;42.808;23.408;2023-02-18T01:49:32;95553.28;;;0.23;86.97
24280;BME280;12395;42.808;23.408;2023-02-18T01:52:02;95570.88;;;0.31;86.83
24280;BME280;12395;42.808;23.408;2023-02-18T01:54:35;95573.66;;;0.39;85.71
24280;BME280;12395;42.808;23.408;2023-02-18T01:59:36;95554.88;;;0.15;86.54
24280;BME280;12395;42.808;23.408;2023-02-18T02:02:03;95552.97;;;0.17;86.58
24280;BME280;12395;42.808;23.408;2023-02-18T02:04:31;95573.03;;;0.26;86.67
24280;BME280;12395;42.808;23.408;2023-02-18T02:06:56;95575.44;;;0.18;86.89
24280;BME280;12395;42.808;23.408;2023-02-18T02:09:23;95583.19;;;0.29;87.10
24280;BME280;12395;42.808;23.408;2023-02-18T02:14:51;95572.78;;;0.29;86.48
24280;BME280;12395;42.808;23.408;2023-02-18T02:17:38;95569.34;;;0.28;86.86
24280;BME280;12395;42.808;23.408;2023-02-18T02:21:13;95586.38;;;0.32;86.70
24280;BME280;12395;42.808;23.408;2023-02-18T02:31:52;95572.66;;;0.10;88.90
24280;BME280;12395;42.808;23.408;2023-02-18T02:34:46;95574.44;;;0.09;89.28
24280;BME280;12395;42.808;23.408;2023-02-18T02:45:57;95578.13;;;0.07;90.21
24280;BME280;12395;42.808;23.408;2023-02-18T02:51:30;95583.59;;;0.04;92.45
24280;BME280;12395;42.808;23.408;2023-02-18T02:54:29;95584.47;;;0.14;91.58
24280;BME280;12395;42.808;23.408;2023-02-18T02:57:50;95581.31;;;0.10;89.78
24280;BME280;12395;42.808;23.408;2023-02-18T03:00:03;95582.38;;;0.08;88.62
24280;BME280;12395;42.808;23.408;2023-02-18T03:05:19;95584.16;;;0.07;89.03
24280;BME280;12395;42.808;23.408;2023-02-18T03:10:30;95580.47;;;0.10;89.92
24280;BME280;12395;42.808;23.408;2023-02-18T03:18:44;95595.47;;;0.68;89.22
24280;BME280;12395;42.808;23.408;2023-02-18T03:21:20;95591.19;;;0.88;91.62
24280;BME280;12395;42.808;23.408;2023-02-18T03:24:15;95585.25;;;1.25;92.26
24280;BME280;12395;42.808;23.408;2023-02-18T03:26:48;95590.63;;;1.52;93.18
24280;BME280;12395;42.808;23.408;2023-02-18T03:29:17;95592.69;;;1.78;92.63
24280;BME280;12395;42.808;23.408;2023-02-18T03:31:46;95597.91;;;2.25;91.18
24280;BME280;12395;42.808;23.408;2023-02-18T03:34:16;95597.69;;;2.65;89.29
24280;BME280;12395;42.808;23.408;2023-02-18T03:36:44;95590.84;;;2.91;87.05
24280;BME280;12395;42.808;23.408;2023-02-18T03:39:14;95598.94;;;3.25;85.57
24280;BME280;12395;42.808;23.408;2023-02-18T03:41:40;95600.78;;;3.42;84.33
24280;BME280;12395;42.808;23.408;2023-02-18T03:44:07;95617.66;;;3.57;83.75
24280;BME280;12395;42.808;23.408;2023-02-18T03:46:34;95608.19;;;3.74;82.18
24280;BME280;12395;42.808;23.408;2023-02-18T03:49:01;95613.78;;;3.79;82.28
24280;BME280;12395;42.808;23.408;2023-02-18T03:51:27;95610.78;;;3.91;81.23
24280;BME280;12395;42.808;23.408;2023-02-18T03:53:52;95606.59;;;4.16;80.44
24280;BME280;12395;42.808;23.408;2023-02-18T03:56:18;95588.69;;;4.29;78.84
24280;BME280;12395;42.808;23.408;2023-02-18T03:58:44;95599.75;;;4.41;78.79
24280;BME280;12395;42.808;23.408;2023-02-18T04:01:10;95592.03;;;4.39;77.81
24280;BME280;12395;42.808;23.408;2023-02-18T04:03:35;95604.94;;;4.33;77.95
24280;BME280;12395;42.808;23.408;2023-02-18T04:06:00;95619.97;;;4.48;77.62
24280;BME280;12395;42.808;23.408;2023-02-18T04:08:26;95610.00;;;4.52;76.86
24280;BME280;12395;42.808;23.408;2023-02-18T04:10:51;95614.38;;;4.43;76.96
24280;BME280;12395;42.808;23.408;2023-02-18T04:13:17;95613.81;;;4.14;73.62
24280;BME280;12395;42.808;23.408;2023-02-18T04:15:45;95596.34;;;3.70;73.17
24280;BME280;12395;42.808;23.408;2023-02-18T04:18:12;95615.94;;;3.48;72.94
24280;BME280;12395;42.808;23.408;2023-02-18T04:20:38;95610.31;;;3.16;73.76
24280;BME280;12395;42.808;23.408;2023-02-18T04:23:04;95620.63;;;2.81;74.35
24280;BME280;12395;42.808;23.408;2023-02-18T04:25:30;95623.44;;;2.60;75.88
24280;BME280;12395;42.808;23.408;2023-02-18T04:27:55;95603.41;;;2.32;76.92
24280;BME280;12395;42.808;23.408;2023-02-18T04:30:21;95621.03;;;2.20;77.99
24280;BME280;12395;42.808;23.408;2023-02-18T04:32:46;95614.16;;;2.00;78.58
24280;BME280;12395;42.808;23.408;2023-02-18T04:35:12;95605.09;;;1.85;78.85
24280;BME280;12395;42.808;23.408;2023-02-18T04:37:38;95604.78;;;1.69;79.65
24280;BME280;12395;42.808;23.408;2023-02-18T04:40:04;95586.22;;;1.43;80.32
24280;BME280;12395;42.808;23.408;2023-02-18T04:42:29;95609.88;;;1.51;81.26
24280;BME280;12395;42.808;23.408;2023-02-18T04:44:54;95618.13;;;1.47;81.48
24280;BME280;12395;42.808;23.408;2023-02-18T04:47:20;95604.16;;;1.18;82.38
24280;BME280;12395;42.808;23.408;2023-02-18T04:49:46;95602.47;;;1.07;83.78
24280;BME280;12395;42.808;23.408;2023-02-18T04:52:11;95597.38;;;0.96;86.16
24280;BME280;12395;42.808;23.408;2023-02-18T04:54:37;95617.63;;;1.13;88.10
24280;BME280;12395;42.808;23.408;2023-02-18T04:57:02;95601.53;;;1.18;92.07
24280;BME280;12395;42.808;23.408;2023-02-18T04:59:28;95595.44;;;1.47;93.85
24280;BME280;12395;42.808;23.408;2023-02-18T05:01:53;95582.53;;;1.94;92.00
24280;BME280;12395;42.808;23.408;2023-02-18T05:04:18;95590.44;;;2.40;89.73
24280;BME280;12395;42.808;23.408;2023-02-18T05:06:44;95583.66;;;2.66;88.21
24280;BME280;12395;42.808;23.408;2023-02-18T05:09:10;95580.69;;;2.88;86.76
24280;BME280;12395;42.808;23.408;2023-02-18T05:11:36;95571.75;;;3.08;84.69
24280;BME280;12395;42.808;23.408;2023-02-18T05:14:01;95590.69;;;3.47;82.74
24280;BME280;12395;42.808;23.408;2023-02-18T05:16:27;95587.28;;;3.82;80.19
24280;BME280;12395;42.808;23.408;2023-02-18T05:18:52;95594.41;;;3.89;79.89
24280;BME280;12395;42.808;23.408;2023-02-18T05:21:17;95599.47;;;4.09;78.27
24280;BME280;12395;42.808;23.408;2023-02-18T05:23:43;95599.91;;;4.22;77.39
24280;BME280;12395;42.808;23.408;2023-02-18T05:26:08;95607.59;;;4.58;75.86
24280;BME280;12395;42.808;23.408;2023-02-18T05:28:34;95601.38;;;4.59;75.12
24280;BME280;12395;42.808;23.408;2023-02-18T05:30:59;95594.78;;;4.81;73.83
24280;BME280;12395;42.808;23.408;2023-02-18T05:33:27;95588.38;;;4.84;73.48
24280;BME280;12395;42.808;23.408;2023-02-18T05:35:52;95601.94;;;5.05;73.26
24280;BME280;12395;42.808;23.408;2023-02-18T05:38:18;95596.03;;;5.03;73.90
24280;BME280;12395;42.808;23.408;2023-02-18T05:40:43;95587.50;;;5.01;73.83
24280;BME280;12395;42.808;23.408;2023-02-18T05:43:09;95601.63;;;5.00;74.74
24280;BME280;12395;42.808;23.408;2023-02-18T05:45:35;95610.16;;;5.02;75.00
24280;BME280;12395;42.808;23.408;2023-02-18T05:48:00;95611.44;;;4.98;74.98
24280;BME280;12395;42.808;23.408;2023-02-18T05:50:26;95603.41;;;4.99;75.42
24280;BME280;12395;42.808;23.408;2023-02-18T05:52:51;95605.13;;;4.83;74.10
24280;BME280;12395;42.808;23.408;2023-02-18T05:55:17;95618.91;;;4.59;71.10
24280;BME280;12395;42.808;23.408;2023-02-18T05:57:42;95617.97;;;4.42;71.25
24280;BME280;12395;42.808;23.408;2023-02-18T06:00:08;95615.75;;;4.12;72.08
24280;BME280;12395;42.808;23.408;2023-02-18T06:02:35;95629.09;;;4.01;73.16
24280;BME280;12395;42.808;23.408;2023-02-18T06:05:00;95629.31;;;3.90;72.94
24280;BME280;12395;42.808;23.408;2023-02-18T06:07:26;95603.75;;;3.57;73.85
24280;BME280;12395;42.808;23.408;2023-02-18T06:09:51;95601.34;;;3.46;74.60
24280;BME280;12395;42.808;23.408;2023-02-18T06:12:18;95597.56;;;3.31;74.43
24280;BME280;12395;42.808;23.408;2023-02-18T06:14:43;95618.91;;;3.36;75.10
24280;BME280;12395;42.808;23.408;2023-02-18T06:17:11;95628.63;;;3.43;75.07
24280;BME280;12395;42.808;23.408;2023-02-18T06:19:37;95612.97;;;3.34;75.40
24280;BME280;12395;42.808;23.408;2023-02-18T06:22:03;95610.72;;;3.39;75.78
24280;BME280;12395;42.808;23.408;2023-02-18T06:24:28;95615.69;;;3.42;75.80
24280;BME280;12395;42.808;23.408;2023-02-18T06:26:54;95596.81;;;3.38;76.32
24280;BME280;12395;42.808;23.408;2023-02-18T06:29:19;95591.22;;;3.51;76.23
24280;BME280;12395;42.808;23.408;2023-02-18T06:31:45;95606.28;;;3.66;76.82
24280;BME280;12395;42.808;23.408;2023-02-18T06:34:10;95610.81;;;3.74;77.27
24280;BME280;12395;42.808;23.408;2023-02-18T06:36:35;95602.03;;;3.83;77.53
24280;BME280;12395;42.808;23.408;2023-02-18T06:39:03;95630.19;;;3.99;77.48
24280;BME280;12395;42.808;23.408;2023-02-18T06:41:29;95614.56;;;3.89;76.92
24280;BME280;12395;42.808;23.408;2023-02-18T06:43:54;95618.09;;;3.98;76.90
24280;BME280;12395;42.808;23.408;2023-02-18T06:46:19;95600.09;;;4.03;76.40
24280;BME280;12395;42.808;23.408;2023-02-18T06:48:45;95599.63;;;4.07;76.26
24280;BME280;12395;42.808;23.408;2023-02-18T06:51:10;95601.97;;;4.10;75.88
24280;BME280;12395;42.808;23.408;2023-02-18T06:53:36;95613.41;;;4.27;75.79
24280;BME280;12395;42.808;23.408;2023-02-18T06:56:01;95618.06;;;4.33;75.38
24280;BME280;12395;42.808;23.408;2023-02-18T06:58:27;95611.06;;;4.41;74.93
24280;BME280;12395;42.808;23.408;2023-02-18T07:00:52;95618.25;;;4.57;74.74
24280;BME280;12395;42.808;23.408;2023-02-18T07:03:17;95604.81;;;4.60;73.83
24280;BME280;12395;42.808;23.408;2023-02-18T07:05:43;95617.25;;;4.84;73.08
24280;BME280;12395;42.808;23.408;2023-02-18T07:08:09;95613.75;;;5.01;72.30
24280;BME280;12395;42.808;23.408;2023-02-18T07:10:35;95592.13;;;5.07;71.50
24280;BME280;12395;42.808;23.408;2023-02-18T07:13:00;95588.56;;;5.24;72.03
24280;BME280;12395;42.808;23.408;2023-02-18T07:15:26;95600.56;;;5.60;72.45
24280;BME280;12395;42.808;23.408;2023-02-18T07:17:53;95595.38;;;5.92;71.46
24280;BME280;12395;42.808;23.408;2023-02-18T07:20:20;95602.97;;;6.44;69.50
24280;BME280;12395;42.808;23.408;2023-02-18T07:22:46;95612.66;;;6.83;68.03
24280;BME280;12395;42.808;23.408;2023-02-18T07:25:11;95603.22;;;7.13;65.64
24280;BME280;12395;42.808;23.408;2023-02-18T07:27:37;95618.41;;;7.50;63.38
24280;BME280;12395;42.808;23.408;2023-02-18T07:30:03;95633.44;;;7.80;63.57
24280;BME280;12395;42.808;23.408;2023-02-18T07:32:28;95616.78;;;7.79;64.12
24280;BME280;12395;42.808;23.408;2023-02-18T07:34:54;95601.31;;;7.46;65.03
24280;BME280;12395;42.808;23.408;2023-02-18T07:37:20;95609.47;;;7.20;65.70
24280;BME280;12395;42.808;23.408;2023-02-18T07:39:45;95589.25;;;7.05;66.33
24280;BME280;12395;42.808;23.408;2023-02-18T07:42:12;95609.13;;;7.15;64.99
24280;BME280;12395;42.808;23.408;2023-02-18T07:44:39;95608.09;;;7.32;61.82
24280;BME280;12395;42.808;23.408;2023-02-18T07:47:06;95609.97;;;7.62;61.04
24280;BME280;12395;42.808;23.408;2023-02-18T07:49:33;95598.00;;;7.83;58.73
24280;BME280;12395;42.808;23.408;2023-02-18T07:51:59;95608.69;;;8.12;58.29
24280;BME280;12395;42.808;23.408;2023-02-18T07:54:25;95623.50;;;8.43;57.35
24280;BME280;12395;42.808;23.408;2023-02-18T07:56:50;95607.47;;;8.68;56.23
24280;BME280;12395;42.808;23.408;2023-02-18T07:59:16;95606.63;;;9.04;53.16
24280;BME280;12395;42.808;23.408;2023-02-18T08:01:42;95616.69;;;9.23;52.55
24280;BME280;12395;42.808;23.408;2023-02-18T08:04:07;95598.38;;;9.37;50.92
24280;BME280;12395;42.808;23.408;2023-02-18T08:06:35;95599.97;;;9.67;50.99
24280;BME280;12395;42.808;23.408;2023-02-18T08:09:02;95603.88;;;9.85;49.64
24280;BME280;12395;42.808;23.408;2023-02-18T08:11:27;95612.22;;;10.03;49.14
24280;BME280;12395;42.808;23.408;2023-02-18T08:13:53;95610.31;;;10.12;48.84
24280;BME280;12395;42.808;23.408;2023-02-18T08:16:19;95622.44;;;10.21;48.19
24280;BME280;12395;42.808;23.408;2023-02-18T08:18:45;95626.06;;;10.20;47.29
24280;BME280;12395;42.808;23.408;2023-02-18T08:21:12;95628.34;;;10.23;46.75
24280;BME280;12395;42.808;23.408;2023-02-18T08:23:38;95608.28;;;10.14;47.08
24280;BME280;12395;42.808;23.408;2023-02-18T08:26:04;95621.75;;;10.34;46.79
24280;BME280;12395;42.808;23.408;2023-02-18T08:28:29;95608.94;;;10.37;46.97
24280;BME280;12395;42.808;23.408;2023-02-18T08:30:55;95600.47;;;10.48;46.20
24280;BME280;12395;42.808;23.408;2023-02-18T08:33:22;95605.66;;;10.56;46.41
24280;BME280;12395;42.808;23.408;2023-02-18T08:35:49;95608.28;;;10.56;46.42
24280;BME280;12395;42.808;23.408;2023-02-18T08:38:15;95623.06;;;10.65;46.00
24280;BME280;12395;42.808;23.408;2023-02-18T08:40:41;95609.31;;;10.55;46.31
24280;BME280;12395;42.808;23.408;2023-02-18T08:43:06;95612.53;;;10.51;46.67
24280;BME280;12395;42.808;23.408;2023-02-18T08:45:32;95613.72;;;10.69;47.63
24280;BME280;12395;42.808;23.408;2023-02-18T08:47:58;95615.38;;;10.70;47.47
24280;BME280;12395;42.808;23.408;2023-02-18T08:50:23;95603.88;;;10.63;47.28
24280;BME280;12395;42.808;23.408;2023-02-18T08:52:53;95602.63;;;10.59;47.41
24280;BME280;12395;42.808;23.408;2023-02-18T08:55:19;95600.19;;;10.58;47.83
24280;BME280;12395;42.808;23.408;2023-02-18T08:57:46;95595.09;;;10.63;46.83
24280;BME280;12395;42.808;23.408;2023-02-18T09:00:15;95612.16;;;10.75;46.58
24280;BME280;12395;42.808;23.408;2023-02-18T09:02:41;95586.41;;;10.69;46.88
24280;BME280;12395;42.808;23.408;2023-02-18T09:05:06;95604.22;;;10.75;47.45
24280;BME280;12395;42.808;23.408;2023-02-18T09:07:34;95602.19;;;10.77;48.33
24280;BME280;12395;42.808;23.408;2023-02-18T09:09:59;95597.44;;;10.72;48.40
24280;BME280;12395;42.808;23.408;2023-02-18T09:12:25;95601.16;;;10.78;48.91
24280;BME280;12395;42.808;23.408;2023-02-18T09:14:50;95598.94;;;10.54;47.83
24280;BME280;12395;42.808;23.408;2023-02-18T09:17:15;95600.75;;;10.53;48.32
24280;BME280;12395;42.808;23.408;2023-02-18T09:19:41;95596.06;;;10.55;48.36
24280;BME280;12395;42.808;23.408;2023-02-18T09:22:06;95606.34;;;10.44;47.81
24280;BME280;12395;42.808;23.408;2023-02-18T09:24:36;95605.47;;;10.58;46.04
24280;BME280;12395;42.808;23.408;2023-02-18T09:27:02;95594.19;;;10.70;44.07
24280;BME280;12395;42.808;23.408;2023-02-18T09:29:27;95595.53;;;10.88;43.76
24280;BME280;12395;42.808;23.408;2023-02-18T09:31:53;95601.03;;;11.14;43.17
24280;BME280;12395;42.808;23.408;2023-02-18T09:34:18;95587.34;;;11.10;41.90
24280;BME280;12395;42.808;23.408;2023-02-18T09:36:44;95616.28;;;11.33;41.09
24280;BME280;12395;42.808;23.408;2023-02-18T09:39:09;95601.63;;;11.43;40.76
24280;BME280;12395;42.808;23.408;2023-02-18T09:41:49;95602.97;;;11.60;40.64
24280;BME280;12395;42.808;23.408;2023-02-18T09:44:20;95605.53;;;11.82;40.95
24280;BME280;12395;42.808;23.408;2023-02-18T09:46:54;95607.03;;;11.97;39.49
24280;BME280;12395;42.808;23.408;2023-02-18T09:49:26;95609.91;;;12.02;39.06
24280;BME280;12395;42.808;23.408;2023-02-18T09:51:54;95588.00;;;11.94;39.20
24280;BME280;12395;42.808;23.408;2023-02-18T09:54:20;95600.50;;;12.06;38.66
24280;BME280;12395;42.808;23.408;2023-02-18T09:56:47;95597.09;;;12.12;39.01
24280;BME280;12395;42.808;23.408;2023-02-18T09:59:18;95598.31;;;12.16;38.98
24280;BME280;12395;42.808;23.408;2023-02-18T10:01:46;95590.50;;;12.08;38.76
24280;BME280;12395;42.808;23.408;2023-02-18T10:04:16;95597.28;;;12.17;38.31
24280;BME280;12395;42.808;23.408;2023-02-18T10:06:43;95597.94;;;12.32;38.48
24280;BME280;12395;42.808;23.408;2023-02-18T10:09:19;95588.53;;;12.36;38.53
24280;BME280;12395;42.808;23.408;2023-02-18T10:11:48;95588.94;;;12.27;38.22
24280;BME280;12395;42.808;23.408;2023-02-18T10:14:15;95569.13;;;12.29;38.91
24280;BME280;12395;42.808;23.408;2023-02-18T10:16:42;95584.06;;;12.37;38.33
24280;BME280;12395;42.808;23.408;2023-02-18T10:19:30;95563.63;;;12.44;38.90
24280;BME280;12395;42.808;23.408;2023-02-18T10:21:57;95573.47;;;12.57;38.34
24280;BME280;12395;42.808;23.408;2023-02-18T10:24:34;95552.59;;;12.47;38.56
24280;BME280;12395;42.808;23.408;2023-02-18T10:27:01;95564.44;;;12.45;38.71
24280;BME280;12395;42.808;23.408;2023-02-18T10:29:28;95548.47;;;12.45;38.77
24280;BME280;12395;42.808;23.408;2023-02-18T10:32:09;95550.34;;;12.51;39.09
24280;BME280;12395;42.808;23.408;2023-02-18T10:45:18;95554.63;;;13.30;38.79
24280;BME280;12395;42.808;23.408;2023-02-18T10:48:03;95520.13;;;13.61;38.50
24280;BME280;12395;42.808;23.408;2023-02-18T10:50:38;95513.97;;;13.67;38.16
24280;BME280;12395;42.808;23.408;2023-02-18T10:55:53;95520.75;;;14.01;37.74
24280;BME280;12395;42.808;23.408;2023-02-18T10:58:45;95529.56;;;14.02;38.12
24280;BME280;12395;42.808;23.408;2023-02-18T11:01:15;95502.38;;;13.93;38.25
24280;BME280;12395;42.808;23.408;2023-02-18T11:03:48;95505.19;;;14.05;37.21
24280;BME280;12395;42.808;23.408;2023-02-18T11:06:20;95513.78;;;14.07;37.77
24280;BME280;12395;42.808;23.408;2023-02-18T11:08:46;95488.81;;;13.94;37.58
24280;BME280;12395;42.808;23.408;2023-02-18T11:11:21;95497.53;;;14.15;37.67
24280;BME280;12395;42.808;23.408;2023-02-18T11:13:55;95475.34;;;14.21;38.06
24280;BME280;12395;42.808;23.408;2023-02-18T11:16:23;95469.91;;;14.09;37.23
24280;BME280;12395;42.808;23.408;2023-02-18T11:19:00;95487.50;;;14.10;37.67
24280;BME280;12395;42.808;23.408;2023-02-18T11:21:31;95494.94;;;14.02;37.04
24280;BME280;12395;42.808;23.408;2023-02-18T11:24:06;95468.47;;;14.07;38.66
24280;BME280;12395;42.808;23.408;2023-02-18T11:26:34;95480.63;;;14.34;37.23
24280;BME280;12395;42.808;23.408;2023-02-18T11:29:21;95471.44;;;14.23;37.83
24280;BME280;12395;42.808;23.408;2023-02-18T11:31:53;95484.31;;;14.33;37.60
24280;BME280;12395;42.808;23.408;2023-02-18T11:34:30;95456.78;;;14.08;37.55
24280;BME280;12395;42.808;23.408;2023-02-18T11:37:11;95464.44;;;14.29;38.70
24280;BME280;12395;42.808;23.408;2023-02-18T11:39:43;95476.25;;;14.39;37.86
24280;BME280;12395;42.808;23.408;2023-02-18T11:42:13;95460.31;;;14.33;37.97
24280;BME280;12395;42.808;23.408;2023-02-18T11:44:46;95443.13;;;14.22;37.36
24280;BME280;12395;42.808;23.408;2023-02-18T11:49:39;95452.00;;;14.16;37.46
24280;BME280;12395;42.808;23.408;2023-02-18T11:54:30;95422.31;;;14.13;38.15
24280;BME280;12395;42.808;23.408;2023-02-18T11:57:01;95427.72;;;14.31;38.61
24280;BME280;12395;42.808;23.408;2023-02-18T11:59:31;95412.72;;;14.36;39.00
24280;BME280;12395;42.808;23.408;2023-02-18T12:04:51;95418.00;;;14.43;38.31
24280;BME280;12395;42.808;23.408;2023-02-18T12:07:24;95408.84;;;14.57;38.29
24280;BME280;12395;42.808;23.408;2023-02-18T12:09:55;95409.09;;;14.74;35.86
24280;BME280;12395;42.808;23.408;2023-02-18T12:12:26;95410.66;;;14.81;35.55
24280;BME280;12395;42.808;23.408;2023-02-18T12:14:56;95396.66;;;14.86;35.89
24280;BME280;12395;42.808;23.408;2023-02-18T12:17:49;95405.41;;;14.93;35.01
24280;BME280;12395;42.808;23.408;2023-02-18T12:20:28;95402.38;;;14.89;35.77
24280;BME280;12395;42.808;23.408;2023-02-18T12:26:14;95379.91;;;14.79;34.50
24280;BME280;12395;42.808;23.408;2023-02-18T12:29:04;95372.97;;;14.78;35.29
24280;BME280;12395;42.808;23.408;2023-02-18T12:31:47;95373.91;;;14.83;35.02
24280;BME280;12395;42.808;23.408;2023-02-18T12:34:19;95357.88;;;15.01;35.42
24280;BME280;12395;42.808;23.408;2023-02-18T12:48:30;95354.31;;;15.43;35.57
24280;BME280;12395;42.808;23.408;2023-02-18T12:56:36;95356.13;;;15.61;32.91
24280;BME280;12395;42.808;23.408;2023-02-18T13:05:27;95362.25;;;15.91;32.70
24280;BME280;12395;42.808;23.408;2023-02-18T13:08:12;95345.28;;;15.86;32.43
24280;BME280;12395;42.808;23.408;2023-02-18T13:13:24;95355.72;;;15.76;33.26
24280;BME280;12395;42.808;23.408;2023-02-18T13:16:03;95355.72;;;15.87;33.63
24280;BME280;12395;42.808;23.408;2023-02-18T13:18:44;95344.16;;;15.64;33.65
24280;BME280;12395;42.808;23.408;2023-02-18T13:21:13;95361.25;;;15.63;33.63
24280;BME280;12395;42.808;23.408;2023-02-18T13:23:45;95353.34;;;15.68;33.25
24280;BME280;12395;42.808;23.408;2023-02-18T13:26:13;95360.34;;;15.69;34.21
24280;BME280;12395;42.808;23.408;2023-02-18T13:31:41;95357.50;;;15.52;33.80
24280;BME280;12395;42.808;23.408;2023-02-18T13:34:23;95348.97;;;15.43;33.84
24280;BME280;12395;42.808;23.408;2023-02-18T13:39:21;95338.56;;;15.35;34.02
24280;BME280;12395;42.808;23.408;2023-02-18T13:41:49;95331.25;;;15.31;34.07
24280;BME280;12395;42.808;23.408;2023-02-18T13:49:13;95322.38;;;15.19;34.61
24280;BME280;12395;42.808;23.408;2023-02-18T13:51:44;95349.78;;;15.26;34.67
24280;BME280;12395;42.808;23.408;2023-02-18T13:56:49;95338.19;;;15.20;35.04
24280;BME280;12395;42.808;23.408;2023-02-18T13:59:24;95340.94;;;15.14;35.43
24280;BME280;12395;42.808;23.408;2023-02-18T14:01:53;95340.41;;;15.05;35.38
24280;BME280;12395;42.808;23.408;2023-02-18T14:09:47;95344.50;;;14.90;35.38
24280;BME280;12395;42.808;23.408;2023-02-18T14:31:05;95343.59;;;14.96;35.42
24280;BME280;12395;42.808;23.408;2023-02-18T14:36:38;95338.69;;;14.93;35.63
24280;BME280;12395;42.808;23.408;2023-02-18T14:50:09;95329.91;;;14.92;36.06
24280;BME280;12395;42.808;23.408;2023-02-18T14:52:44;95316.06;;;14.84;36.34
24280;BME280;12395;42.808;23.408;2023-02-18T14:55:33;95327.38;;;14.79;36.35
24280;BME280;12395;42.808;23.408;2023-02-18T14:58:06;95301.44;;;14.68;36.34
24280;BME280;12395;42.808;23.408;2023-02-18T15:00:39;95289.09;;;14.55;36.73
24280;BME280;12395;42.808;23.408;2023-02-18T15:03:12;95318.34;;;14.62;37.11
24280;BME280;12395;42.808;23.408;2023-02-18T15:05:38;95308.41;;;14.51;37.07
24280;BME280;12395;42.808;23.408;2023-02-18T15:08:06;95306.75;;;14.50;37.33
24280;BME280;12395;42.808;23.408;2023-02-18T15:10:39;95309.44;;;14.50;37.06
24280;BME280;12395;42.808;23.408;2023-02-18T15:13:15;95304.84;;;14.39;37.55
24280;BME280;12395;42.808;23.408;2023-02-18T15:15:43;95311.44;;;14.36;37.87
24280;BME280;12395;42.808;23.408;2023-02-18T15:21:05;95313.66;;;14.15;37.81
24280;BME280;12395;42.808;23.408;2023-02-18T15:23:35;95302.25;;;14.08;38.61
24280;BME280;12395;42.808;23.408;2023-02-18T15:26:01;95293.94;;;13.98;38.45